Stolt Effort — ZCSP6 — position and weather

sailwx.info

Track history (hours):
 
Tides and Currents Weather Stations Pressure Air Temp Water Temp Dewpoint Dewpoint Depression Visibility Wind Speed Wind Dir Waves Ship Positions

Stolt Effort

Last reported at 2015-Aug-22 17:33 UTC. Time now 2015-Sep-02 10:40 UTC.
Position N 31°34' E 032°10'.
Warning: this ship's position is 10 days out of date.

Length 176 m; draft 11.9 m.

Type: Ship (hazmat cat B). MMSI: 319445000.

Date/timePositionNaut miles runAvg speedWind from/ knotsBaromVisibWave heightAir tempDewpointWater temp
2015-Aug-22 17:33N 31°34' E 032°10'7612.7
2015-Aug-22 11:32N 32°08' E 030°49'  
2015-Aug-20 06:29N 35°46' E 016°19'1414.1
2015-Aug-20 05:31N 35°50' E 016°03'1414.1
2015-Aug-20 04:33N 35°54' E 015°47'4814.4
2015-Aug-20 01:15N 36°08' E 014°51'1014.4
2015-Aug-20 00:33N 36°11' E 014°39'1414.3
2015-Aug-19 23:33N 36°15' E 014°22'1414.1
2015-Aug-19 22:33N 36°19' E 014°05'1414.1
2015-Aug-19 21:33N 36°23' E 013°48'54415.1
2015-Aug-18 09:33N 37°02' E 002°32'10016.7
2015-Aug-18 03:32N 36°41' E 000°29'51114.1
2015-Aug-16 15:17N 38°14' W 010°04'2016.8
2015-Aug-16 14:07N 38°33' W 010°09'2516.2
2015-Aug-16 12:34N 38°58' W 010°12'1615.8
2015-Aug-16 11:34N 39°14' W 010°12'  
2015-Aug-14 02:32N 50°22' W 000°47'3115.0
2015-Aug-14 00:27N 50°30' E 000°00'1213.8
2015-Aug-13 23:33N 50°33' E 000°19'1312.7
2015-Aug-13 22:33N 50°38' E 000°38'1212.1
2015-Aug-13 21:33N 50°44' E 000°54'1212.4
2015-Aug-13 20:33N 50°51' E 001°10'1414.0
2015-Aug-13 19:33N 51°01' E 001°26'1616.1
2015-Aug-13 18:33N 51°12' E 001°44'1515.0
2015-Aug-13 17:33N 51°25' E 001°57'1413.6
2015-Aug-13 16:33N 51°35' E 002°11'4711.5
2015-Aug-13 12:26N 52°03' E 003°13'1112.5
2015-Aug-13 11:32N 52°03' E 003°32'1312.9
2015-Aug-13 10:33N 52°03' E 003°52'1110.6
2015-Aug-13 09:33N 51°58' E 004°08'10 9.0
2015-Aug-13 08:30N 51°54' E 004°22'0 0.0
2015-Aug-13 01:11N 51°54' E 004°22'0 0.0
2015-Aug-12 21:29N 51°54' E 004°22'0 0.0
2015-Aug-12 20:32N 51°54' E 004°22'0 0.0
2015-Aug-12 19:29N 51°54' E 004°22'0 0.0
2015-Aug-12 18:05N 51°54' E 004°22'  
Track history (hours):
 
Tides and Currents Weather Stations Pressure Air Temp Water Temp Dewpoint Dewpoint Depression Visibility Wind Speed Wind Dir Waves Ship Positions

Stolt Effort

Last reported at 2015-Aug-22 17:33 UTC. Time now 2015-Sep-02 10:40 UTC.
Position N 31°34' E 032°10'.
Warning: this ship's position is 10 days out of date.

Length 176 m; draft 11.9 m.

Type: Ship (hazmat cat B). MMSI: 319445000.

Date/timePositionNaut miles runAvg speedWind from/ knotsBaromVisibWave heightAir tempDewpointWater temp
2015-Aug-22 17:33N 31°34' E 032°10'7612.7
2015-Aug-22 11:32N 32°08' E 030°49'  
2015-Aug-20 06:29N 35°46' E 016°19'1414.1
2015-Aug-20 05:31N 35°50' E 016°03'1414.1
2015-Aug-20 04:33N 35°54' E 015°47'4814.4
2015-Aug-20 01:15N 36°08' E 014°51'1014.4
2015-Aug-20 00:33N 36°11' E 014°39'1414.3
2015-Aug-19 23:33N 36°15' E 014°22'1414.1
2015-Aug-19 22:33N 36°19' E 014°05'1414.1
2015-Aug-19 21:33N 36°23' E 013°48'54415.1
2015-Aug-18 09:33N 37°02' E 002°32'10016.7
2015-Aug-18 03:32N 36°41' E 000°29'51114.1
2015-Aug-16 15:17N 38°14' W 010°04'2016.8
2015-Aug-16 14:07N 38°33' W 010°09'2516.2
2015-Aug-16 12:34N 38°58' W 010°12'1615.8
2015-Aug-16 11:34N 39°14' W 010°12'  
2015-Aug-14 02:32N 50°22' W 000°47'3115.0
2015-Aug-14 00:27N 50°30' E 000°00'1213.8
2015-Aug-13 23:33N 50°33' E 000°19'1312.7
2015-Aug-13 22:33N 50°38' E 000°38'1212.1
2015-Aug-13 21:33N 50°44' E 000°54'1212.4
2015-Aug-13 20:33N 50°51' E 001°10'1414.0
2015-Aug-13 19:33N 51°01' E 001°26'1616.1
2015-Aug-13 18:33N 51°12' E 001°44'1515.0
2015-Aug-13 17:33N 51°25' E 001°57'1413.6
2015-Aug-13 16:33N 51°35' E 002°11'4711.5
2015-Aug-13 12:26N 52°03' E 003°13'1112.5
2015-Aug-13 11:32N 52°03' E 003°32'1312.9
2015-Aug-13 10:33N 52°03' E 003°52'1110.6
2015-Aug-13 09:33N 51°58' E 004°08'10 9.0
2015-Aug-13 08:30N 51°54' E 004°22'0 0.0
2015-Aug-13 01:11N 51°54' E 004°22'0 0.0
2015-Aug-12 21:29N 51°54' E 004°22'0 0.0
2015-Aug-12 20:32N 51°54' E 004°22'0 0.0
2015-Aug-12 19:29N 51°54' E 004°22'0 0.0
2015-Aug-12 18:05N 51°54' E 004°22'  

Dump ship's entire track history